Montecito, California
Current Conditions -  °F | °C
As of 2:53 PM on Thursday 20 Nov 2014 (Local Time) from KSBA Reporting Station
Overcast Overcast  
Wind Chill: 67°   Ceiling: 10000
Heat Index: 67°   Visibility: 10mi
Dew Point: 53°   Wind: 0mph
Humidity: 61%   Direction: NA
Pressure: 30"   Gusts: NA
Location:  34.4354°N, 119.641°W
Report Text: KSBA 202253Z 00000KT 10SM SCT025 OVC100 19/12 A3000 RMK AO2 SLP160 T01940117
Loading
Personal Weather Stations






























Interactive Weather Map New forecast layout! Learn more

10-Day Weather Forecast

Advertisements
Track Severe Weather on mobile